createdAt,value
2023-03-14T00:02:17.828Z,49.90
2023-03-14T00:05:19.578Z,50.10
2023-03-14T00:08:21.644Z,50.00
2023-03-14T00:11:23.746Z,50.10
2023-03-14T00:14:25.240Z,50.00
2023-03-14T00:17:26.845Z,50.10
2023-03-14T00:20:28.188Z,50.00
2023-03-14T00:23:30.018Z,50.20
2023-03-14T00:26:33.092Z,49.90
2023-03-14T00:29:35.149Z,50.00
2023-03-14T00:32:36.916Z,50.10
2023-03-14T00:35:38.299Z,50.20
2023-03-14T00:38:40.082Z,50.10
2023-03-14T00:41:41.944Z,50.00
2023-03-14T00:44:43.169Z,50.10
2023-03-14T00:47:45.727Z,50.10
2023-03-14T00:50:50.371Z,50.10
2023-03-14T00:53:51.670Z,50.90
2023-03-14T00:56:53.597Z,50.20
2023-03-14T00:59:57.643Z,50.20
2023-03-14T01:02:59.267Z,49.70
2023-03-14T01:06:07.083Z,50.20
2023-03-14T01:09:10.101Z,50.20
2023-03-14T01:12:11.964Z,50.20
2023-03-14T01:15:13.227Z,50.30
2023-03-14T01:18:14.508Z,50.40
2023-03-14T01:21:17.018Z,50.60
2023-03-14T01:24:21.735Z,50.60
2023-03-14T01:27:23.746Z,50.60
2023-03-14T01:30:25.783Z,50.40
2023-03-14T01:33:27.184Z,50.20
2023-03-14T01:36:30.468Z,50.40
2023-03-14T01:39:34.488Z,50.40
2023-03-14T01:42:36.462Z,50.40
2023-03-14T01:45:49.204Z,50.50
2023-03-14T01:48:54.531Z,50.20
2023-03-14T01:51:57.753Z,50.30
2023-03-14T01:55:00.274Z,50.30
2023-03-14T01:58:04.035Z,50.30
2023-03-14T02:01:07.079Z,50.60
2023-03-14T02:04:09.272Z,50.20
2023-03-14T02:07:12.639Z,50.20
2023-03-14T02:10:21.395Z,50.20
2023-03-14T02:13:26.099Z,50.10
2023-03-14T02:16:38.538Z,50.40
2023-03-14T02:20:11.112Z,50.30
2023-03-14T02:23:17.198Z,50.10
2023-03-14T02:26:24.034Z,50.20
2023-03-14T02:29:26.400Z,50.20
2023-03-14T02:32:29.412Z,50.20
2023-03-14T02:35:34.269Z,50.10
2023-03-14T02:38:38.099Z,50.00
2023-03-14T02:41:42.682Z,50.10
2023-03-14T02:44:49.412Z,50.30
2023-03-14T02:47:54.285Z,50.80
2023-03-14T02:50:58.020Z,50.30
2023-03-14T02:54:03.195Z,50.10
2023-03-14T02:57:07.374Z,49.20
2023-03-14T03:00:10.958Z,49.50
2023-03-14T03:03:13.748Z,50.10
2023-03-14T03:06:15.801Z,50.00
2023-03-14T03:09:19.710Z,50.10
2023-03-14T03:12:21.070Z,50.00
2023-03-14T03:15:23.474Z,49.90
2023-03-14T03:18:25.575Z,49.80
2023-03-14T03:21:28.407Z,50.30
2023-03-14T03:24:31.394Z,49.90
2023-03-14T03:27:33.398Z,49.90
2023-03-14T03:30:38.475Z,49.80
2023-03-14T03:33:40.278Z,49.80
2023-03-14T03:36:44.729Z,49.80
2023-03-14T03:39:50.120Z,49.10
2023-03-14T03:42:51.603Z,49.70
2023-03-14T03:45:53.681Z,49.80
2023-03-14T03:48:57.769Z,50.00
2023-03-14T03:52:01.073Z,50.00
2023-03-14T03:55:02.894Z,49.80
2023-03-14T03:58:04.261Z,49.60
2023-03-14T04:01:06.642Z,49.60
2023-03-14T04:04:08.130Z,49.80
2023-03-14T04:07:10.382Z,49.70
2023-03-14T04:10:11.722Z,49.80
2023-03-14T04:13:20.272Z,49.70
2023-03-14T04:16:27.125Z,48.90
2023-03-14T04:19:35.969Z,49.60
2023-03-14T04:22:37.433Z,49.60
2023-03-14T04:25:40.206Z,49.60
2023-03-14T04:28:41.843Z,49.80
2023-03-14T04:31:45.363Z,49.40
2023-03-14T04:34:46.938Z,49.50
2023-03-14T04:37:49.341Z,49.40
2023-03-14T04:40:51.878Z,49.50
2023-03-14T04:43:55.316Z,49.40
2023-03-14T04:46:58.030Z,49.50
2023-03-14T04:49:59.903Z,49.30
2023-03-14T04:53:01.623Z,49.40
2023-03-14T04:56:03.657Z,49.60
2023-03-14T04:59:11.392Z,49.20
2023-03-14T05:02:16.867Z,49.30
2023-03-14T05:05:31.948Z,49.30
2023-03-14T05:08:42.782Z,49.30
2023-03-14T05:11:56.043Z,49.50
2023-03-14T05:15:11.781Z,49.10
2023-03-14T05:18:24.660Z,49.10
2023-03-14T05:21:39.874Z,49.00
2023-03-14T05:24:59.152Z,49.20
2023-03-14T05:28:23.447Z,49.00
2023-03-14T05:31:33.332Z,47.80
2023-03-14T05:34:46.550Z,49.00
2023-03-14T05:38:00.179Z,49.20
2023-03-14T05:41:21.307Z,49.00
2023-03-14T05:44:45.430Z,48.90
2023-03-14T05:48:06.640Z,48.80
2023-03-14T05:51:18.490Z,49.30
2023-03-14T05:54:37.341Z,48.90
2023-03-14T05:57:48.784Z,49.20
2023-03-14T06:01:10.160Z,48.80
2023-03-14T06:04:27.150Z,48.80
2023-03-14T06:07:32.697Z,48.80
2023-03-14T06:10:35.259Z,49.10
2023-03-14T06:13:36.703Z,49.30
2023-03-14T06:16:39.743Z,48.80
2023-03-14T06:19:41.327Z,48.70
2023-03-14T06:22:45.711Z,48.90
2023-03-14T06:25:48.260Z,48.70
2023-03-14T06:28:51.011Z,48.90
2023-03-14T06:31:52.523Z,48.60
2023-03-14T06:34:54.288Z,49.00
2023-03-14T06:37:56.504Z,48.50
2023-03-14T06:41:03.047Z,48.90
2023-03-14T06:44:11.286Z,48.30
2023-03-14T06:47:13.270Z,48.50
2023-03-14T06:50:17.949Z,48.30
2023-03-14T06:53:23.702Z,48.50
2023-03-14T06:56:26.301Z,48.00
2023-03-14T06:59:29.860Z,48.30
2023-03-14T07:02:42.307Z,48.00
2023-03-14T07:05:55.160Z,48.40
2023-03-14T07:09:02.285Z,47.70
2023-03-14T07:12:04.580Z,48.10
2023-03-14T07:15:19.993Z,47.60
2023-03-14T07:18:26.611Z,47.20
2023-03-14T07:21:28.304Z,47.50
2023-03-14T07:24:30.392Z,47.70
2023-03-14T07:27:31.848Z,47.60
2023-03-14T07:30:33.655Z,47.60
2023-03-14T07:33:37.861Z,47.50
2023-03-14T07:36:40.742Z,47.50
2023-03-14T07:39:42.617Z,47.30
2023-03-14T07:42:58.327Z,47.40
2023-03-14T07:46:03.679Z,46.20
2023-03-14T07:49:04.970Z,47.30
2023-03-14T07:52:06.238Z,46.90
2023-03-14T07:55:08.518Z,47.30
2023-03-14T07:58:09.763Z,46.80
2023-03-14T08:01:11.038Z,47.10
2023-03-14T08:04:12.463Z,46.70
2023-03-14T08:07:16.173Z,46.90
2023-03-14T08:10:21.633Z,46.60
2023-03-14T08:13:25.493Z,46.80
2023-03-14T08:16:26.905Z,46.70
2023-03-14T08:19:28.191Z,46.70
2023-03-14T08:22:30.396Z,46.50
2023-03-14T08:25:32.610Z,45.70
2023-03-14T08:28:33.921Z,46.40
2023-03-14T08:31:35.320Z,46.80
2023-03-14T08:34:37.643Z,46.20
2023-03-14T08:37:39.034Z,46.10
2023-03-14T08:40:40.951Z,46.10
2023-03-14T08:43:42.359Z,46.30
2023-03-14T08:46:43.813Z,46.10
2023-03-14T08:49:46.703Z,46.20
2023-03-14T08:52:48.175Z,45.90
2023-03-14T08:55:53.207Z,46.40
2023-03-14T08:58:54.452Z,45.80
2023-03-14T09:01:55.780Z,46.40
2023-03-14T09:04:57.134Z,45.80
2023-03-14T09:07:58.410Z,46.10
2023-03-14T09:11:00.503Z,45.70
2023-03-14T09:14:01.837Z,45.80
2023-03-14T09:17:03.753Z,45.60
2023-03-14T09:20:07.656Z,45.70
2023-03-14T09:23:08.948Z,45.60
2023-03-14T09:26:10.793Z,45.90
2023-03-14T09:29:12.182Z,45.40
2023-03-14T09:32:13.460Z,45.50
2023-03-14T09:35:14.741Z,45.50
2023-03-14T09:38:16.703Z,45.60
2023-03-14T09:41:23.118Z,45.30
2023-03-14T09:44:26.626Z,45.60
2023-03-14T09:47:28.427Z,45.40
2023-03-14T09:50:31.830Z,45.50
2023-03-14T09:53:37.072Z,45.10
2023-03-14T09:56:39.461Z,45.50
2023-03-14T09:59:42.326Z,45.40
2023-03-14T10:02:46.673Z,45.40
2023-03-14T10:05:48.046Z,45.10
2023-03-14T10:08:49.496Z,46.00
2023-03-14T10:11:55.018Z,45.70
2023-03-14T10:14:56.382Z,45.20
2023-03-14T10:18:01.506Z,45.20
2023-03-14T10:21:04.465Z,45.40
2023-03-14T10:24:10.007Z,45.10
2023-03-14T10:27:18.925Z,45.40
2023-03-14T10:30:28.955Z,45.00
2023-03-14T10:33:31.884Z,45.30
2023-03-14T10:36:34.876Z,45.00
2023-03-14T10:39:43.384Z,45.10
2023-03-14T10:42:47.378Z,45.00
2023-03-14T10:45:52.720Z,45.00
2023-03-14T10:48:55.934Z,45.00
2023-03-14T10:52:01.336Z,45.10
2023-03-14T10:55:04.021Z,45.00
2023-03-14T10:58:05.849Z,45.20
2023-03-14T11:01:18.341Z,44.90
2023-03-14T11:04:24.274Z,45.00
2023-03-14T11:07:28.928Z,44.80
2023-03-14T11:10:32.296Z,44.90
2023-03-14T11:13:37.873Z,44.70
2023-03-14T11:16:46.266Z,44.80
2023-03-14T11:19:53.991Z,44.70
2023-03-14T11:23:01.899Z,45.00
2023-03-14T11:26:11.919Z,44.20
2023-03-14T11:29:20.219Z,45.00
2023-03-14T11:32:25.059Z,44.60
2023-03-14T11:35:30.856Z,44.70
2023-03-14T11:38:35.290Z,44.40
2023-03-14T11:41:39.117Z,44.60
2023-03-14T11:44:41.285Z,44.60
2023-03-14T11:47:43.472Z,44.60
2023-03-14T11:50:46.818Z,44.30
2023-03-14T11:53:50.916Z,44.50
2023-03-14T11:56:54.351Z,44.40
2023-03-14T11:59:59.341Z,44.30
2023-03-14T12:03:05.210Z,44.10
2023-03-14T12:06:13.486Z,44.30
2023-03-14T12:09:15.517Z,44.10
2023-03-14T12:12:21.586Z,44.20
2023-03-14T12:15:24.701Z,44.00
2023-03-14T12:18:28.167Z,44.20
2023-03-14T12:21:44.251Z,43.90
2023-03-14T12:24:47.767Z,44.20
2023-03-14T12:28:02.719Z,43.90
2023-03-14T12:31:18.878Z,44.00
2023-03-14T12:34:29.214Z,43.80
2023-03-14T12:37:36.054Z,44.00
2023-03-14T12:40:39.935Z,43.80
2023-03-14T12:43:41.590Z,43.90
2023-03-14T12:46:44.208Z,43.70
2023-03-14T12:49:46.997Z,44.00
2023-03-14T12:53:04.262Z,43.70
2023-03-14T12:56:10.245Z,44.00
2023-03-14T12:59:21.075Z,43.60
2023-03-14T13:02:24.473Z,43.70
2023-03-14T13:05:26.739Z,43.50
2023-03-14T13:08:38.852Z,43.80
2023-03-14T13:11:41.364Z,43.40
2023-03-14T13:14:44.165Z,43.60
2023-03-14T13:17:46.491Z,43.40
2023-03-14T13:20:51.966Z,43.60
2023-03-14T13:23:55.423Z,43.20
2023-03-14T13:26:58.347Z,43.40
2023-03-14T13:30:05.094Z,43.80
2023-03-14T13:33:06.490Z,43.30
2023-03-14T13:36:10.121Z,43.10
2023-03-14T13:39:13.328Z,43.10
2023-03-14T13:42:15.949Z,43.20
2023-03-14T13:45:20.167Z,43.10
2023-03-14T13:48:22.629Z,42.90
2023-03-14T13:51:27.821Z,43.00
2023-03-14T13:54:31.590Z,42.90
2023-03-14T13:57:43.368Z,43.00
2023-03-14T14:00:53.468Z,42.70
2023-03-14T14:03:55.951Z,43.00
2023-03-14T14:06:59.241Z,42.80
2023-03-14T14:10:01.363Z,43.00
2023-03-14T14:13:03.678Z,42.70
2023-03-14T14:16:06.493Z,42.80
2023-03-14T14:19:08.938Z,42.80
2023-03-14T14:22:11.259Z,42.80
2023-03-14T14:25:13.785Z,42.60
2023-03-14T14:28:18.784Z,42.80
2023-03-14T14:31:21.617Z,42.60
2023-03-14T14:34:26.218Z,42.60
2023-03-14T14:37:30.541Z,42.50
2023-03-14T14:40:32.447Z,42.70
2023-03-14T14:43:36.838Z,42.50
2023-03-14T14:46:38.303Z,42.60
2023-03-14T14:49:39.716Z,42.50
2023-03-14T14:52:42.445Z,42.70
2023-03-14T14:55:43.880Z,42.40
2023-03-14T14:58:45.846Z,42.60
2023-03-14T15:01:50.922Z,42.40
2023-03-14T15:04:53.539Z,42.50
2023-03-14T15:07:55.542Z,42.10
2023-03-14T15:10:57.554Z,42.40
2023-03-14T15:13:58.860Z,42.20
2023-03-14T15:17:00.128Z,42.40
2023-03-14T15:20:01.427Z,42.20
2023-03-14T15:23:09.852Z,42.50
2023-03-14T15:26:14.017Z,42.10
2023-03-14T15:29:15.262Z,42.30
2023-03-14T15:32:18.251Z,42.30
2023-03-14T15:35:19.507Z,42.30
2023-03-14T15:38:23.083Z,42.10
2023-03-14T15:41:24.818Z,42.20
2023-03-14T15:44:26.086Z,42.10
2023-03-14T15:47:28.264Z,42.40
2023-03-14T15:50:29.754Z,42.30
2023-03-14T15:53:31.793Z,42.30
2023-03-14T15:56:33.235Z,42.30
2023-03-14T15:59:35.612Z,42.20
2023-03-14T16:02:40.321Z,42.00
2023-03-14T16:05:41.699Z,42.20
2023-03-14T16:08:43.853Z,42.00
2023-03-14T16:11:46.520Z,42.10
2023-03-14T16:14:50.735Z,42.00
2023-03-14T16:17:52.682Z,42.00
2023-03-14T16:20:57.539Z,42.00
2023-03-14T16:24:00.009Z,42.00
2023-03-14T16:27:01.714Z,42.10
2023-03-14T16:30:05.989Z,42.20
2023-03-14T16:36:30.536Z,42.00
2023-03-14T16:39:32.666Z,41.80
2023-03-14T16:42:33.944Z,41.90
2023-03-14T16:45:36.165Z,41.70
2023-03-14T16:48:38.541Z,41.80
2023-03-14T16:51:40.186Z,41.60
2023-03-14T16:54:42.064Z,41.90
2023-03-14T16:57:43.572Z,41.90
2023-03-14T17:00:45.250Z,41.80
2023-03-14T17:03:47.046Z,41.50
2023-03-14T17:06:48.440Z,41.70
2023-03-14T17:09:50.920Z,41.70
2023-03-14T17:12:52.156Z,41.80
2023-03-14T17:15:55.606Z,41.40
2023-03-14T17:18:56.914Z,41.50
2023-03-14T17:22:21.159Z,41.40
2023-03-14T17:25:20.174Z,41.70
2023-03-14T17:28:22.316Z,41.40
2023-03-14T17:31:23.891Z,41.40
2023-03-14T17:34:25.183Z,41.30
2023-03-14T17:37:26.789Z,41.40
2023-03-14T17:40:28.667Z,41.20
2023-03-14T17:43:30.788Z,41.40
2023-03-14T17:46:32.150Z,41.20
2023-03-14T17:49:33.525Z,41.60
2023-03-14T17:52:35.555Z,41.10
2023-03-14T17:55:37.400Z,41.30
2023-03-14T17:58:39.018Z,41.20
2023-03-14T18:01:40.810Z,41.40
2023-03-14T18:04:43.150Z,41.20
2023-03-14T18:07:44.507Z,41.00
2023-03-14T18:10:46.423Z,41.20
2023-03-14T18:13:48.100Z,41.40
2023-03-14T18:16:50.616Z,41.10
2023-03-14T18:19:57.735Z,41.30
2023-03-14T18:23:01.013Z,41.10
2023-03-14T18:26:03.231Z,41.40
2023-03-14T18:29:04.764Z,41.00
2023-03-14T18:32:06.302Z,41.20
2023-03-14T18:35:07.837Z,41.00
2023-03-14T18:38:09.067Z,41.10
2023-03-14T18:41:11.986Z,41.20
2023-03-14T18:44:13.302Z,41.20
2023-03-14T18:47:14.604Z,41.00
2023-03-14T18:50:17.372Z,41.20
2023-03-14T18:53:18.881Z,41.00
2023-03-14T18:56:21.026Z,41.10
2023-03-14T18:59:22.454Z,41.30
2023-03-14T19:02:23.790Z,41.30
2023-03-14T19:05:25.077Z,41.10
2023-03-14T19:08:27.417Z,41.40
2023-03-14T19:11:29.336Z,41.20
2023-03-14T19:14:30.612Z,41.40
2023-03-14T19:17:32.668Z,41.30
2023-03-14T19:20:33.925Z,41.50
2023-03-14T19:23:38.071Z,41.40
2023-03-14T19:26:39.961Z,41.30
2023-03-14T19:29:42.322Z,41.40
2023-03-14T19:32:43.731Z,41.50
2023-03-14T19:35:47.650Z,41.40
2023-03-14T19:38:49.293Z,41.50
2023-03-14T19:41:56.760Z,41.30
2023-03-14T19:45:00.604Z,41.60
2023-03-14T19:48:03.024Z,41.40
2023-03-14T19:51:04.745Z,41.50
2023-03-14T19:54:06.325Z,41.40
2023-03-14T19:57:08.172Z,41.60
2023-03-14T20:00:16.115Z,41.50
2023-03-14T20:03:17.284Z,41.60
2023-03-14T20:06:18.540Z,41.60
2023-03-14T20:09:19.911Z,41.70
2023-03-14T20:12:21.729Z,41.50
2023-03-14T20:15:23.606Z,41.70
2023-03-14T20:18:27.799Z,41.50
2023-03-14T20:21:29.896Z,41.20
2023-03-14T20:24:31.866Z,41.50
2023-03-14T20:27:34.061Z,41.90
2023-03-14T20:30:36.042Z,41.60
2023-03-14T20:33:37.370Z,41.80
2023-03-14T20:36:38.641Z,41.60
2023-03-14T20:39:39.957Z,41.70
2023-03-14T20:42:41.896Z,41.80
2023-03-14T20:45:43.219Z,41.90
2023-03-14T20:48:44.824Z,41.60
2023-03-14T20:51:46.074Z,41.70
2023-03-14T20:54:49.704Z,42.40
2023-03-14T20:57:51.575Z,41.80
2023-03-14T21:00:54.555Z,41.80
2023-03-14T21:03:58.676Z,41.70
2023-03-14T21:07:00.043Z,41.60
2023-03-14T21:10:01.313Z,41.90
2023-03-14T21:13:03.582Z,41.90
2023-03-14T21:16:05.191Z,41.80
2023-03-14T21:19:06.533Z,41.60
2023-03-14T21:22:07.779Z,42.00
2023-03-14T21:25:10.365Z,41.80
2023-03-14T21:28:12.402Z,41.90
2023-03-14T21:31:16.728Z,41.70
2023-03-14T21:34:20.154Z,41.90
2023-03-14T21:37:23.794Z,41.60
2023-03-14T21:40:25.026Z,41.80
2023-03-14T21:43:27.575Z,41.90
2023-03-14T21:46:28.888Z,42.00
2023-03-14T21:49:37.277Z,41.70
2023-03-14T21:52:38.531Z,42.00
2023-03-14T21:55:40.818Z,41.80
2023-03-14T21:58:42.656Z,41.90
2023-03-14T22:01:44.300Z,41.90
2023-03-14T22:04:45.926Z,42.00
2023-03-14T22:07:47.207Z,41.80
2023-03-14T22:10:49.404Z,41.90
2023-03-14T22:13:51.377Z,41.70
2023-03-14T22:16:52.624Z,41.80
2023-03-14T22:19:54.004Z,41.80
2023-03-14T22:22:55.209Z,42.10
2023-03-14T22:25:56.438Z,42.80
2023-03-14T22:28:58.293Z,42.40
2023-03-14T22:31:59.665Z,41.80
2023-03-14T22:35:00.976Z,41.80
2023-03-14T22:38:02.285Z,41.90
2023-03-14T22:41:03.639Z,42.10
2023-03-14T22:44:05.536Z,42.00
2023-03-14T22:47:06.901Z,42.00
2023-03-14T22:50:09.288Z,41.80
2023-03-14T22:53:10.797Z,41.70
2023-03-14T22:56:12.328Z,41.90
2023-03-14T22:59:16.989Z,41.80
2023-03-14T23:02:18.692Z,41.90
2023-03-14T23:05:22.961Z,42.10
2023-03-14T23:08:24.401Z,41.60
2023-03-14T23:11:25.778Z,41.80
2023-03-14T23:14:27.733Z,41.90
2023-03-14T23:17:29.018Z,41.80
2023-03-14T23:20:30.362Z,42.00
2023-03-14T23:23:31.606Z,41.90
2023-03-14T23:26:34.640Z,41.80
2023-03-14T23:29:36.420Z,41.70
2023-03-14T23:32:38.549Z,41.80
2023-03-14T23:35:41.326Z,42.20
2023-03-14T23:38:44.311Z,41.70
2023-03-14T23:41:45.542Z,41.70
2023-03-14T23:44:47.502Z,41.80
2023-03-14T23:47:49.022Z,41.80
2023-03-14T23:50:53.492Z,41.80
2023-03-14T23:53:54.729Z,42.00
2023-03-14T23:56:55.976Z,41.90
2023-03-14T23:59:57.774Z,41.90
